Flight Track Log - Related Links

Times and Time Zones

All times are in EDT time to prevent confusion due to time zone crossing. See the N826D flight status page for this flight to view local times or setup timezone preferences in your user account.

Time Position Orientation Groundspeed Altitude Reporting Facility
EDT Latitude Longitude Course Direction KTS MPH feet Rate Location/Type
Wed 09:04:28 AM 37.1247 -76.5061 241° Southwest 114 131 600  Level Washington Center
Wed 09:05:40 AM 37.1056 -76.5503 241° Southwest 117 135 1,900 1,036 Climbing Washington Center
Wed 09:06:47 AM 37.1094 -76.5944 276° West 103 119 3,000 930 Climbing Washington Center
Wed 09:07:49 AM 37.1092 -76.6311 269° West 109 125 3,900 492 Climbing Washington Center
Wed 09:08:49 AM 37.1067 -76.6728 266° West 131 151 4,000 65 Climbing Washington Center
Wed 09:09:22 AM 37.1086 -76.7014 275° West 143 165 4,000 -63 Level Washington Center
Wed 09:10:24 AM 37.0975 -76.7506 254° West 148 170 3,900 -49 Descending Washington Center
Wed 09:11:24 AM 37.0533 -76.7864 213° Southwest 161 185 3,900  Level Washington Center
Wed 09:12:25 AM 37.0053 -76.8169 207° Southwest 175 201 3,900 50 Level Washington Center
Wed 09:13:23 AM 36.9653 -76.8422 207° Southwest 191 220 4,000 50 Climbing Washington Center
Wed 09:14:24 AM 36.9106 -76.8828 211° Southwest 201 231 4,000 50 Level Washington Center
Wed 09:15:24 AM 36.8622 -76.9133 207° Southwest 201 231 4,100 50 Climbing Washington Center
Wed 09:16:23 AM 36.8181 -76.9489 213° Southwest 201 231 4,100  Level Washington Center
Wed 09:17:23 AM 36.7719 -76.9792 208° Southwest 201 231 4,100 50 Level Washington Center
Wed 09:18:24 AM 36.7236 -77.0094 207° Southwest 196 226 4,200  Climbing Washington Center
Wed 09:19:25 AM 36.6814 -77.0450 214° Southwest 196 226 4,100 -50 Descending Washington Center
Wed 09:20:25 AM 36.6414 -77.0831 217° Southwest 191 220 4,100 51 Level Washington Center
Wed 09:21:22 AM 36.5989 -77.1236 217° Southwest 191 220 4,200  Climbing Washington Center
Wed 09:22:23 AM 36.5567 -77.1642 218° Southwest 191 220 4,100 -50 Descending Washington Center
Wed 09:23:23 AM 36.5167 -77.1994 215° Southwest 197 227 4,100  Level Washington Center
Wed 09:24:24 AM 36.4764 -77.2400 219° Southwest 197 227 4,100  Level Washington Center
Wed 09:25:24 AM 36.4342 -77.2803 218° Southwest 197 227 4,100  Level Washington Center
Wed 09:26:25 AM 36.3897 -77.3181 214° Southwest 197 227 4,100  Level Washington Center
Wed 09:27:23 AM 36.3456 -77.3533 213° Southwest 197 227 4,100  Level Washington Center
Wed 09:28:23 AM 36.3033 -77.3858 212° Southwest 197 227 4,100  Level Washington Center
Wed 09:29:24 AM 36.2589 -77.4233 214° Southwest 197 227 4,100  Level Washington Center
Wed 09:30:22 AM 36.2167 -77.4611 216° Southwest 197 227 4,100 -50 Level Washington Center
Wed 09:31:23 AM 36.1764 -77.4911 211° Southwest 197 227 4,000  Descending Washington Center
Wed 09:32:23 AM 36.1364 -77.5286 217° Southwest 192 221 4,100 50 Climbing Washington Center
Wed 09:33:24 AM 36.0897 -77.5608 209° Southwest 192 221 4,100  Level Washington Center
Wed 09:34:25 AM 36.0497 -77.5958 215° Southwest 192 221 4,100  Level Washington Center
Wed 09:35:25 AM 36.0031 -77.6331 213° Southwest 192 221 4,100  Level Washington Center
Wed 09:36:23 AM 35.9586 -77.6681 213° Southwest 192 221 4,100  Level Washington Center
Wed 09:37:23 AM 35.9164 -77.7028 214° Southwest 192 221 4,100  Level Washington Center
Wed 09:38:24 AM 35.8719 -77.7375 212° Southwest 192 221 4,100  Level Washington Center
Wed 09:39:07 AM 35.8381 -77.7647 213° Southwest 187 215 4,100  Level Washington Center
Wed 09:39:25 AM 35.8294 -77.7722 215° Southwest 192 221 4,100  Level Washington Center
Wed 09:40:07 AM 35.7914 -77.8019 212° Southwest 186 214 4,100  Level Washington Center
Wed 09:40:25 AM 35.7850 -77.8069 212° Southwest 192 221 4,100  Level Washington Center
Wed 09:41:08 AM 35.7492 -77.8364 214° Southwest 185 213 4,100  Level Washington Center
Wed 09:41:23 AM 35.7428 -77.8442 225° Southwest 192 221 4,100  Level Washington Center
Wed 09:42:08 AM 35.7044 -77.8711 210° Southwest 186 214 4,100  Level Washington Center
Wed 09:42:23 AM 35.6981 -77.8786 224° Southwest 192 221 4,100  Level Washington Center
Wed 09:43:09 AM 35.6600 -77.9081 212° Southwest 186 214 4,100  Level Washington Center
Wed 09:43:24 AM 35.6536 -77.9131 212° Southwest 192 221 4,100  Level Washington Center
Wed 09:44:10 AM 35.6175 -77.9428 214° Southwest 187 215 4,100  Level Washington Center
Wed 09:44:22 AM 35.6114 -77.9478 214° Southwest 192 221 4,100  Level Washington Center
Wed 09:45:14 AM 35.5689 -77.9822 213° Southwest 190 219 4,100  Level Washington Center
Wed 09:45:23 AM 35.5667 -77.9819 174° South 192 221 4,100  Level Washington Center
Wed 09:46:15 AM 35.5222 -78.0217 216° Southwest 190 219 4,100  Level Washington Center
Wed 09:46:24 AM 35.5222 -78.0189 90° East 192 221 4,100  Level Washington Center
Wed 09:47:23 AM 35.4797 -78.0533 213° Southwest 192 221 4,100  Level Washington Center
Wed 09:48:18 AM 35.4353 -78.0903 214° Southwest 186 214 4,100  Level Washington Center
Wed 09:48:24 AM 35.4353 -78.0853 90° East 192 221 4,100  Level Washington Center
Wed 09:49:19 AM 35.3928 -78.1222 215° Southwest 189 217 4,100  Level Washington Center
Wed 09:50:17 AM 35.3461 -78.1589 213° Southwest 188 216 4,100  Level Washington Center
Wed 09:51:18 AM 35.3036 -78.1931 213° Southwest 188 216 4,100  Level Washington Center
Wed 09:52:19 AM 35.2611 -78.2300 215° Southwest 188 216 4,100  Level Washington Center
Wed 09:53:19 AM 35.2122 -78.2664 211° Southwest 188 216 4,100  Level Washington Center
Wed 09:54:20 AM 35.1697 -78.3006 213° Southwest 189 217 4,100  Level Washington Center
Wed 09:55:22 AM 35.1231 -78.3344 211° Southwest 193 222 4,100 49 Level Washington Center
Wed 09:57:00 AM 35.0402 -78.3786 204° Southwest  Level FlightAware Approximate
Wed 10:04:00 AM 34.7116 -78.6300 213° Southwest  Level FlightAware Approximate
Wed 10:05:00 AM 34.6652 -78.6668 213° Southwest  Level FlightAware Approximate
Wed 10:06:00 AM 34.6189 -78.7035 213° Southwest  Level FlightAware Approximate
Wed 10:07:00 AM 34.5725 -78.7402 213° Southwest  Level FlightAware Approximate
Wed 10:08:00 AM 34.5262 -78.7768 213° Southwest  Level FlightAware Approximate
Wed 10:09:00 AM 34.4798 -78.8134 213° Southwest  Level FlightAware Approximate
Wed 10:10:00 AM 34.4334 -78.8500 213° Southwest  Level FlightAware Approximate
Wed 10:11:00 AM 34.3867 -78.8859 212° Southwest  Level FlightAware Approximate
Wed 10:12:00 AM 34.3400 -78.9218 212° Southwest  Level FlightAware Approximate
Wed 10:13:00 AM 34.2932 -78.9576 212° Southwest  Level FlightAware Approximate
Wed 10:14:00 AM 34.2465 -78.9934 212° Southwest  Level FlightAware Approximate
Wed 10:15:00 AM 34.1997 -79.0292 212° Southwest  Level FlightAware Approximate
Wed 10:16:00 AM 34.1530 -79.0649 212° Southwest  Level FlightAware Approximate
Wed 10:17:00 AM 34.1062 -79.1006 212° Southwest  Level FlightAware Approximate
Wed 10:18:00 AM 34.0594 -79.1362 212° Southwest  Level FlightAware Approximate
Wed 10:19:00 AM 34.0126 -79.1718 212° Southwest  Level FlightAware Approximate
Wed 10:20:00 AM 33.9658 -79.2074 212° Southwest  Level FlightAware Approximate
Wed 10:21:00 AM 33.9190 -79.2429 212° Southwest  Level FlightAware Approximate
Wed 10:22:00 AM 33.8722 -79.2784 212° Southwest  Level FlightAware Approximate
Wed 10:23:00 AM 33.8253 -79.3138 212° Southwest  Level FlightAware Approximate
Wed 10:24:00 AM 33.7785 -79.3492 212° Southwest  Level FlightAware Approximate
Wed 10:25:00 AM 33.7317 -79.3846 212° Southwest  Level FlightAware Approximate
Wed 10:26:00 AM 33.6850 -79.4203 212° Southwest  Level FlightAware Approximate
Wed 10:27:00 AM 33.6383 -79.4560 212° Southwest  Level FlightAware Approximate
Wed 10:28:00 AM 33.5916 -79.4916 212° Southwest  Level FlightAware Approximate
Wed 10:29:00 AM 33.5449 -79.5272 212° Southwest  Level FlightAware Approximate
Wed 10:30:00 AM 33.4982 -79.5628 212° Southwest  Level FlightAware Approximate
Wed 10:31:00 AM 33.4515 -79.5983 212° Southwest  Level FlightAware Approximate
Wed 10:32:00 AM 33.4048 -79.6338 212° Southwest  Level FlightAware Approximate
Wed 10:33:00 AM 33.3581 -79.6694 213° Southwest  Level FlightAware Approximate
Wed 10:34:00 AM 33.3116 -79.7053 213° Southwest  Level FlightAware Approximate
Wed 10:35:00 AM 33.2651 -79.7411 213° Southwest  Level FlightAware Approximate
Wed 10:36:00 AM 33.2186 -79.7769 213° Southwest  Level FlightAware Approximate
Wed 10:37:00 AM 33.1721 -79.8126 213° Southwest  Level FlightAware Approximate
Wed 10:38:00 AM 33.1255 -79.8483 213° Southwest  Level FlightAware Approximate
Wed 10:39:00 AM 33.0789 -79.8840 213° Southwest  Level FlightAware Approximate
Wed 10:40:00 AM 33.0324 -79.9196 213° Southwest  Level FlightAware Approximate
Wed 10:41:00 AM 32.9858 -79.9552 213° Southwest  Level FlightAware Approximate
Wed 10:42:00 AM 32.9392 -79.9908 213° Southwest  Level FlightAware Approximate
Wed 10:43:00 AM 32.8926 -80.0263 213° Southwest  Level FlightAware Approximate
Wed 10:44:00 AM 32.8459 -80.0615 212° Southwest  Level FlightAware Approximate
Wed 10:45:00 AM 32.7991 -80.0966 212° Southwest  Level FlightAware Approximate
Wed 10:46:00 AM 32.7523 -80.1317 212° Southwest  Level FlightAware Approximate
Wed 10:47:00 AM 32.7097 -80.1736 220° Southwest  Level FlightAware Approximate
Wed 10:48:00 AM 32.6628 -80.2081 209° Southwest  Level FlightAware Approximate
Wed 10:49:00 AM 32.6152 -80.2415 211° Southwest  Level FlightAware Approximate
Wed 10:50:00 AM 32.5678 -80.2754 211° Southwest  Level FlightAware Approximate
Wed 10:51:00 AM 32.5210 -80.3103 215° Southwest  Level FlightAware Approximate
Wed 10:52:00 AM 32.4756 -80.3479 215° Southwest  Level FlightAware Approximate
Wed 10:53:00 AM 32.4303 -80.3854 215° Southwest  Level FlightAware Approximate
Wed 10:54:00 AM 32.3850 -80.4230 215° Southwest  Level FlightAware Approximate
Wed 10:55:00 AM 32.3396 -80.4605 215° Southwest  Level FlightAware Approximate
Wed 10:56:00 AM 32.2942 -80.4979 215° Southwest  Level FlightAware Approximate
Wed 10:57:00 AM 32.2489 -80.5353 215° Southwest  Level FlightAware Approximate
Wed 10:58:00 AM 32.2035 -80.5727 215° Southwest  Level FlightAware Approximate
Wed 10:59:00 AM 32.1581 -80.6100 215° Southwest  Level FlightAware Approximate
Wed 11:00:00 AM 32.1098 -80.6364 215° Southwest  Level FlightAware Approximate
Wed 11:01:00 AM 32.0647 -80.6741 215° Southwest  Level FlightAware Approximate
Wed 11:02:00 AM 32.0195 -80.7118 215° Southwest  Level FlightAware Approximate
Wed 11:03:00 AM 31.9743 -80.7494 215° Southwest  Level FlightAware Approximate
Wed 11:04:00 AM 31.9291 -80.7870 215° Southwest  Level FlightAware Approximate
Wed 11:05:00 AM 31.8839 -80.8246 215° Southwest  Level FlightAware Approximate
Wed 11:06:00 AM 31.8388 -80.8622 215° Southwest  Level FlightAware Approximate
Wed 11:07:00 AM 31.7877 -80.8866 200° South  Level FlightAware Approximate
Wed 11:08:00 AM 31.7358 -80.9092 200° South  Level FlightAware Approximate
Wed 11:09:00 AM 31.6839 -80.9318 200° South  Level FlightAware Approximate
Wed 11:10:00 AM 31.6320 -80.9544 200° South  Level FlightAware Approximate
Wed 11:11:00 AM 31.5802 -80.9769 200° South  Level FlightAware Approximate
Wed 11:12:00 AM 31.5283 -80.9994 200° South  Level FlightAware Approximate
Wed 11:13:00 AM 31.4764 -81.0219 200° South  Level FlightAware Approximate
Wed 11:14:00 AM 31.4243 -81.0436 199° South  Level FlightAware Approximate
Wed 11:15:00 AM 31.3719 -81.0646 199° South  Level FlightAware Approximate
Wed 11:16:00 AM 31.3196 -81.0856 199° South  Level FlightAware Approximate
Wed 11:16:11 AM 31.6653 -80.9497 200° South 200 230 8,100  Level Jacksonville Center
Wed 11:17:00 AM 31.2672 -81.1065 199° South  Level FlightAware Approximate
Wed 11:17:11 AM 31.6217 -80.9675 199° South 200 230 8,100  Level Jacksonville Center
Wed 11:18:00 AM 31.2149 -81.1274 199° South  Level FlightAware Approximate
Wed 11:18:11 AM 31.5678 -80.9906 200° South 192 221 8,100  Level Jacksonville Center
Wed 11:19:00 AM 31.1628 -81.1493 200° South  Level FlightAware Approximate
Wed 11:19:11 AM 31.5178 -81.0111 199° South 198 228 8,100  Level Jacksonville Center
Wed 11:20:00 AM 31.1109 -81.1716 200° South  Level FlightAware Approximate
Wed 11:20:11 AM 31.4619 -81.0342 199° South 198 228 8,100  Level Jacksonville Center
Wed 11:21:11 AM 31.4100 -81.0572 201° Southwest 198 228 8,100  Level Jacksonville Center
Wed 11:22:11 AM 31.3581 -81.0800 201° Southwest 198 228 8,100  Level Jacksonville Center
Wed 11:23:11 AM 31.3125 -81.1003 201° Southwest 198 228 8,100  Level Jacksonville Center
Wed 11:24:11 AM 31.2544 -81.1233 199° South 198 228 8,100  Level Jacksonville Center
Wed 11:25:11 AM 31.2025 -81.1461 201° Southwest 203 234 8,100  Level Jacksonville Center
Wed 11:26:11 AM 31.1506 -81.1667 199° South 203 234 8,100  Level Jacksonville Center
Wed 11:26:35 AM 31.1256 -81.1767 199° South 200 230 8,100  Level Jacksonville Center
Wed 11:27:11 AM 31.1050 -81.1894 208° Southwest 208 239 8,100  Level Jacksonville Center
Wed 11:27:12 AM 31.0944 -81.1919 191° South 201 231 8,100  Level Jacksonville Center
Wed 11:28:07 AM 31.0467 -81.2097 198° South 201 231 8,100  Level Jacksonville Center
Wed 11:28:11 AM 31.0425 -81.2122 207° Southwest 213 245 8,100  Level Jacksonville Center
Wed 11:29:11 AM 30.9928 -81.2372 203° Southwest 208 239 8,100  Level Jacksonville Center
Wed 11:29:14 AM 30.9906 -81.2350 139° Southeast 199 229 8,100  Level Jacksonville Center
Wed 11:30:11 AM 30.9389 -81.2578 201° Southwest 208 239 8,100  Level Jacksonville Center
Wed 11:30:16 AM 30.9347 -81.2603 207° Southwest 199 229 8,100  Level Jacksonville Center
Wed 11:31:11 AM 30.8889 -81.2803 201° Southwest 208 239 8,100  Level Jacksonville Center
Wed 11:31:17 AM 30.8806 -81.2828 194° South 197 227 8,100  Level Jacksonville Center
Wed 11:32:11 AM 30.8369 -81.3031 202° Southwest 208 239 8,100  Level Jacksonville Center
Wed 11:32:18 AM 30.8308 -81.3056 199° South 194 223 8,100  Level Jacksonville Center
Wed 11:33:20 AM 30.7789 -81.3258 199° South 194 223 8,100  Level Jacksonville Center
Wed 11:34:21 AM 30.7247 -81.3483 200° South 195 224 8,100  Level Jacksonville Center
Wed 11:35:11 AM 30.6875 -81.3731 210° Southwest 208 239 8,100  Level Jacksonville Center
Wed 11:35:23 AM 30.6792 -81.3781 207° Southwest 195 224 8,100  Level Jacksonville Center
Wed 11:36:11 AM 30.6378 -81.4006 205° Southwest 203 234 8,100  Level Jacksonville Center
Wed 11:36:24 AM 30.6294 -81.4056 207° Southwest 195 224 8,100  Level Jacksonville Center
Wed 11:37:25 AM 30.5756 -81.4328 204° Southwest 198 228 8,100  Level Jacksonville Center
Wed 11:38:20 AM 30.5342 -81.4575 207° Southwest 197 227 8,100  Level Jacksonville Center
Wed 11:39:22 AM 30.4758 -81.4850 202° Southwest 198 228 8,100  Level Jacksonville Center
Wed 11:40:23 AM 30.4325 -81.5169 212° Southwest 191 220 8,100  Level Jacksonville Center
Wed 11:41:24 AM 30.3825 -81.5489 209° Southwest 198 228 8,100  Level Jacksonville Center
Wed 11:42:25 AM 30.3328 -81.5761 205° Southwest 196 226 8,100  Level Jacksonville Center
Wed 11:43:26 AM 30.2850 -81.6056 208° Southwest 197 227 8,100  Level Jacksonville Center
Wed 11:44:27 AM 30.2311 -81.6353 205° Southwest 197 227 8,100  Level Jacksonville Center
Wed 11:45:35 AM 30.1792 -81.6672 208° Southwest 199 229 8,100 47 Level Jacksonville Center
Wed 11:46:36 AM 30.1294 -81.6917 203° Southwest 197 227 8,200  Climbing Jacksonville Center
Wed 11:47:37 AM 30.0733 -81.7211 204° Southwest 198 228 8,100 393 Descending Jacksonville Center
Wed 11:48:38 AM 30.0297 -81.7433 204° Southwest 169 194 9,000 469 Climbing Jacksonville Center
Wed 11:49:45 AM 29.9839 -81.7728 209° Southwest 171 197 9,100 47 Climbing Jacksonville Center
Wed 11:50:47 AM 29.9342 -81.8044 209° Southwest 194 223 9,100  Level Jacksonville Center
Wed 11:52:00 AM 29.8758 -81.8361 205° Southwest 195 224 9,100  Level Jacksonville Center
Wed 11:53:07 AM 29.8197 -81.8681 206° Southwest 198 228 9,100  Level Jacksonville Center
Wed 11:53:56 AM 29.7783 -81.8900 205° Southwest 197 227 9,100  Level Jacksonville Center
Wed 11:54:57 AM 29.7283 -81.9192 207° Southwest 198 228 9,100  Level Jacksonville Center
Wed 11:55:59 AM 29.6911 -81.9578 222° Southwest 178 205 9,100  Level Jacksonville Center
Wed 11:57:00 AM 29.6581 -82.0058 232° Southwest 184 212 9,100 -47 Level Jacksonville Center
Wed 11:58:07 AM 29.6058 -82.0303 202° Southwest 213 245 9,000  Descending Jacksonville Center
Wed 11:59:03 AM 29.5686 -82.0664 220° Southwest 178 205 9,100 52 Climbing Jacksonville Center
Wed 12:00:03 PM 29.5333 -82.1119 228° Southwest 184 212 9,100  Level Jacksonville Center
Wed 12:01:05 PM 29.4919 -82.1506 219° Southwest 198 228 9,100  Level Jacksonville Center
Wed 12:02:12 PM 29.4400 -82.1844 210° Southwest 193 222 9,100  Level Jacksonville Center
Wed 12:04:08 PM 29.3483 -82.2444 210° Southwest 191 220 9,100  Level Jacksonville Center
Wed 12:05:03 PM 29.2942 -82.2378 174° South 234 269 9,100  Level Jacksonville Center
Wed 12:06:11 PM 29.2272 -82.2217 168° South 217 250 9,100  Level Jacksonville Center
Wed 12:07:06 PM 29.1728 -82.2147 174° South 216 249 9,100  Level Jacksonville Center
Wed 12:08:07 PM 29.1122 -82.2058 173° South 215 247 9,100  Level Jacksonville Center
Wed 12:09:08 PM 29.0539 -82.1942 170° South 215 247 9,100 -49 Level Jacksonville Center
Wed 12:10:09 PM 28.9953 -82.1853 172° South 213 245 9,000  Descending Jacksonville Center
Wed 12:12:12 PM 28.8742 -82.1647 172° South 210 242 9,100 33 Climbing Jacksonville Center
Wed 12:13:13 PM 28.8156 -82.1556 172° South 212 244 9,100  Level Jacksonville Center
Wed 12:15:34 PM 28.6833 -82.1333 172° South 211 243 9,100  Level Tampa TRACON
Wed 12:16:40 PM 28.6167 -82.1167 168° South 214 246 9,100  Level Tampa TRACON
Wed 12:17:40 PM 28.5500 -82.1167 180° South 214 246 9,100  Level Tampa TRACON
Wed 12:18:40 PM 28.5000 -82.1000 164° South 210 242 9,100 53 Level Tampa TRACON
Wed 12:19:34 PM 28.4500 -82.0833 164° South 210 242 9,200  Climbing Tampa TRACON
Wed 12:20:34 PM 28.3833 -82.0833 180° South 211 243 9,100 -50 Descending Tampa TRACON
Wed 12:21:34 PM 28.3333 -82.0667 164° South 209 241 9,100 50 Level Tampa TRACON
Wed 12:22:34 PM 28.2667 -82.0667 180° South 208 239 9,200  Climbing Tampa TRACON
Wed 12:23:40 PM 28.2000 -82.0500 168° South 207 238 9,100  Descending Tampa TRACON
Wed 12:25:55 PM 28.0864 -82.0314 172° South 195 224 9,200 31 Climbing Miami Center
Wed 12:26:55 PM 28.0283 -82.0217 172° South 201 231 9,200 -50 Level Miami Center
Wed 12:27:55 PM 27.9725 -82.0097 169° South 201 231 9,100 -50 Descending Miami Center
Wed 12:28:55 PM 27.9169 -81.9861 159° South 206 237 9,100  Level Miami Center
Wed 12:29:55 PM 27.8553 -81.9644 163° South 206 237 9,100  Level Miami Center
Wed 12:30:55 PM 27.8086 -81.9250 143° Southeast 206 237 9,100 50 Level Miami Center
Wed 12:31:55 PM 27.7553 -81.8992 157° South 212 244 9,200  Climbing Miami Center
Wed 12:32:55 PM 27.6994 -81.8803 163° South 212 244 9,100  Descending Miami Center
Wed 12:33:55 PM 27.6481 -81.8592 160° South 212 244 9,200  Climbing Miami Center
Wed 12:34:55 PM 27.5864 -81.8378 163° South 206 237 9,100 -50 Descending Miami Center
Wed 12:35:55 PM 27.5306 -81.8189 163° South 206 237 9,100 -150 Level Miami Center
Wed 12:36:55 PM 27.4708 -81.7953 161° South 206 237 8,800 -350 Descending Miami Center
Wed 12:37:55 PM 27.4111 -81.7764 164° South 217 250 8,400 -450 Descending Miami Center
Wed 12:38:55 PM 27.3511 -81.7528 161° South 222 255 7,900 -400 Descending Miami Center
Wed 12:39:55 PM 27.2914 -81.7339 164° South 222 255 7,600 -400 Descending Miami Center
Wed 12:40:55 PM 27.2358 -81.7128 161° South 222 255 7,100 -250 Descending Miami Center
Wed 12:41:55 PM 27.1800 -81.6919 162° South 217 250 7,100  Level Miami Center
Wed 12:42:55 PM 27.1264 -81.6733 163° South 212 244 7,100  Level Miami Center
Wed 12:43:55 PM 27.0769 -81.6525 159° South 201 231 7,100  Level Miami Center
Wed 12:44:55 PM 27.0231 -81.6386 167° South 201 231 7,100  Level Miami Center
Wed 12:45:55 PM 26.9728 -81.6483 190° South 194 223 7,100  Level Miami Center
Wed 12:46:55 PM 26.9211 -81.6344 167° South 194 223 7,100 -200 Level Miami Center
Wed 12:47:55 PM 26.8714 -81.6186 164° South 199 229 6,700 -500 Descending Miami Center
Wed 12:48:55 PM 26.8136 -81.6000 164° South 204 235 6,100 -550 Descending Miami Center
Wed 12:49:55 PM 26.7578 -81.5836 165° South 204 235 5,600 -500 Descending Miami Center
Wed 12:50:55 PM 26.7019 -81.5650 163° South 204 235 5,100 -250 Descending Miami Center
Wed 12:51:55 PM 26.6503 -81.5492 165° South 204 235 5,100  Level Miami Center
Wed 12:53:00 PM 26.6254 -81.6053 244° Southwest  Level FlightAware Approximate
Wed 01:00:00 PM 26.2808 -81.7296 188° South  Level Estimated
Wed 01:01:00 PM 26.2316 -81.7472 190° South  Level Estimated
Wed 01:02:00 PM 26.1810 -81.7593 192° South  Level FlightAware Approximate
Wed 01:03:00 PM 26.1524 -81.7756 192° South  Level Estimated
Wed 01:04:00 PM 26.1524 -81.7756 190° South  Level Estimated
Wed 01:05:00 PM 26.1524 -81.7756 107° East  Level Estimated
Wed 01:06:00 PM 26.1524 -81.7756 190° South  Level Estimated
Wed 01:07:00 PM 26.1524 -81.7756 107° East  Level Estimated
Wed 01:08:00 PM 26.1524 -81.7756 190° South  Level Estimated
Wed 01:09:00 PM 26.1524 -81.7756 107° East  Level Estimated
Wed 01:10:00 PM 26.1524 -81.7756 190° South  Level Estimated
Wed 01:11:00 PM 26.1524 -81.7756 107° East  Level Estimated
Wed 01:12:00 PM 26.1524 -81.7756 190° South  Level Estimated
Wed 01:13:00 PM 26.1524 -81.7756 107° East  Level Estimated
Wed 01:14:00 PM 26.1524 -81.7756 190° South  Level Estimated
Wed 01:15:00 PM 26.1524 -81.7756 107° East  Level Estimated

Login

Don't have an account? Register now (free) for customized features, flight alerts, and more!